sensor_id;sensor_type;location;lat;lon;timestamp;P1;durP1;ratioP1;P2;durP2;ratioP2
30010;SDS011;16851;53.564;8.112;2023-10-13T00:02:25;52.78;;;27.88;;
30010;SDS011;16851;53.564;8.112;2023-10-13T00:07:33;73.70;;;32.78;;
30010;SDS011;16851;53.564;8.112;2023-10-13T00:12:35;75.75;;;34.05;;
30010;SDS011;16851;53.564;8.112;2023-10-13T00:17:39;91.93;;;37.75;;
30010;SDS011;16851;53.564;8.112;2023-10-13T00:22:44;95.82;;;39.92;;
30010;SDS011;16851;53.564;8.112;2023-10-13T00:27:46;107.18;;;42.17;;
30010;SDS011;16851;53.564;8.112;2023-10-13T00:32:53;106.15;;;43.00;;
30010;SDS011;16851;53.564;8.112;2023-10-13T00:37:58;102.85;;;41.15;;
30010;SDS011;16851;53.564;8.112;2023-10-13T00:43:08;108.90;;;43.15;;
30010;SDS011;16851;53.564;8.112;2023-10-13T00:48:25;88.65;;;40.53;;
30010;SDS011;16851;53.564;8.112;2023-10-13T00:53:35;85.88;;;40.47;;
30010;SDS011;16851;53.564;8.112;2023-10-13T00:58:45;114.03;;;42.72;;
30010;SDS011;16851;53.564;8.112;2023-10-13T01:03:54;99.13;;;43.13;;
30010;SDS011;16851;53.564;8.112;2023-10-13T01:13:59;96.22;;;42.55;;
30010;SDS011;16851;53.564;8.112;2023-10-13T01:19:04;100.60;;;43.50;;
30010;SDS011;16851;53.564;8.112;2023-10-13T01:24:07;133.57;;;44.65;;
30010;SDS011;16851;53.564;8.112;2023-10-13T01:29:09;152.38;;;49.85;;
30010;SDS011;16851;53.564;8.112;2023-10-13T01:34:17;119.45;;;45.83;;
30010;SDS011;16851;53.564;8.112;2023-10-13T01:39:26;133.57;;;48.92;;
30010;SDS011;16851;53.564;8.112;2023-10-13T01:44:30;145.73;;;50.70;;
30010;SDS011;16851;53.564;8.112;2023-10-13T01:49:32;145.38;;;51.60;;
30010;SDS011;16851;53.564;8.112;2023-10-13T01:54:44;156.82;;;53.50;;
30010;SDS011;16851;53.564;8.112;2023-10-13T01:59:47;173.95;;;54.10;;
30010;SDS011;16851;53.564;8.112;2023-10-13T02:04:50;156.50;;;57.00;;
30010;SDS011;16851;53.564;8.112;2023-10-13T02:09:58;184.82;;;57.60;;
30010;SDS011;16851;53.564;8.112;2023-10-13T02:15:00;153.45;;;54.50;;
30010;SDS011;16851;53.564;8.112;2023-10-13T02:20:03;166.70;;;56.65;;
30010;SDS011;16851;53.564;8.112;2023-10-13T02:25:09;148.70;;;53.05;;
30010;SDS011;16851;53.564;8.112;2023-10-13T02:30:19;127.00;;;50.13;;
30010;SDS011;16851;53.564;8.112;2023-10-13T02:35:25;139.75;;;52.05;;
30010;SDS011;16851;53.564;8.112;2023-10-13T02:40:45;131.13;;;49.90;;
30010;SDS011;16851;53.564;8.112;2023-10-13T02:45:53;126.32;;;50.13;;
30010;SDS011;16851;53.564;8.112;2023-10-13T02:50:59;122.07;;;47.63;;
30010;SDS011;16851;53.564;8.112;2023-10-13T02:56:07;123.25;;;48.10;;
30010;SDS011;16851;53.564;8.112;2023-10-13T03:01:09;113.78;;;48.22;;
30010;SDS011;16851;53.564;8.112;2023-10-13T03:06:20;125.07;;;48.92;;
30010;SDS011;16851;53.564;8.112;2023-10-13T03:11:25;120.53;;;49.30;;
30010;SDS011;16851;53.564;8.112;2023-10-13T03:16:34;126.70;;;50.00;;
30010;SDS011;16851;53.564;8.112;2023-10-13T03:21:39;127.28;;;49.78;;
30010;SDS011;16851;53.564;8.112;2023-10-13T03:26:45;134.63;;;52.75;;
30010;SDS011;16851;53.564;8.112;2023-10-13T03:31:53;116.03;;;49.95;;
30010;SDS011;16851;53.564;8.112;2023-10-13T03:37:11;134.45;;;52.65;;
30010;SDS011;16851;53.564;8.112;2023-10-13T03:42:22;117.95;;;52.35;;
30010;SDS011;16851;53.564;8.112;2023-10-13T03:47:23;117.32;;;50.88;;
30010;SDS011;16851;53.564;8.112;2023-10-13T03:52:28;117.60;;;51.42;;
30010;SDS011;16851;53.564;8.112;2023-10-13T03:57:36;117.55;;;52.92;;
30010;SDS011;16851;53.564;8.112;2023-10-13T04:02:41;111.15;;;50.35;;
30010;SDS011;16851;53.564;8.112;2023-10-13T04:07:54;116.05;;;51.08;;
30010;SDS011;16851;53.564;8.112;2023-10-13T04:13:15;131.40;;;54.53;;
30010;SDS011;16851;53.564;8.112;2023-10-13T04:18:37;123.20;;;52.30;;
30010;SDS011;16851;53.564;8.112;2023-10-13T04:23:57;110.80;;;49.78;;
30010;SDS011;16851;53.564;8.112;2023-10-13T04:29:27;114.03;;;49.10;;
30010;SDS011;16851;53.564;8.112;2023-10-13T04:34:47;122.78;;;50.03;;
30010;SDS011;16851;53.564;8.112;2023-10-13T04:39:53;132.48;;;52.92;;
30010;SDS011;16851;53.564;8.112;2023-10-13T04:45:00;159.25;;;55.33;;
30010;SDS011;16851;53.564;8.112;2023-10-13T04:50:19;153.18;;;59.38;;
30010;SDS011;16851;53.564;8.112;2023-10-13T04:55:29;137.77;;;57.22;;
30010;SDS011;16851;53.564;8.112;2023-10-13T05:00:36;121.00;;;54.92;;
30010;SDS011;16851;53.564;8.112;2023-10-13T05:05:57;129.73;;;54.72;;
30010;SDS011;16851;53.564;8.112;2023-10-13T05:11:18;121.72;;;52.40;;
30010;SDS011;16851;53.564;8.112;2023-10-13T05:16:38;130.63;;;53.17;;
30010;SDS011;16851;53.564;8.112;2023-10-13T05:21:59;111.60;;;49.38;;
30010;SDS011;16851;53.564;8.112;2023-10-13T05:27:19;119.25;;;48.40;;
30010;SDS011;16851;53.564;8.112;2023-10-13T05:32:40;103.20;;;46.70;;
30010;SDS011;16851;53.564;8.112;2023-10-13T05:38:00;102.20;;;46.15;;
30010;SDS011;16851;53.564;8.112;2023-10-13T05:43:21;105.13;;;44.33;;
30010;SDS011;16851;53.564;8.112;2023-10-13T05:48:45;84.65;;;39.70;;
30010;SDS011;16851;53.564;8.112;2023-10-13T05:54:02;96.65;;;41.55;;
30010;SDS011;16851;53.564;8.112;2023-10-13T05:59:16;81.60;;;38.97;;
30010;SDS011;16851;53.564;8.112;2023-10-13T06:04:39;74.90;;;36.58;;
30010;SDS011;16851;53.564;8.112;2023-10-13T06:09:59;73.50;;;36.58;;
30010;SDS011;16851;53.564;8.112;2023-10-13T06:15:20;67.10;;;35.00;;
30010;SDS011;16851;53.564;8.112;2023-10-13T06:20:40;57.15;;;31.85;;
30010;SDS011;16851;53.564;8.112;2023-10-13T06:26:01;68.05;;;35.33;;
30010;SDS011;16851;53.564;8.112;2023-10-13T06:31:21;67.93;;;34.38;;
30010;SDS011;16851;53.564;8.112;2023-10-13T06:36:30;75.13;;;40.35;;
30010;SDS011;16851;53.564;8.112;2023-10-13T06:41:34;62.33;;;32.55;;
30010;SDS011;16851;53.564;8.112;2023-10-13T06:46:42;62.15;;;32.17;;
30010;SDS011;16851;53.564;8.112;2023-10-13T06:51:45;46.72;;;25.73;;
30010;SDS011;16851;53.564;8.112;2023-10-13T06:56:51;48.40;;;26.90;;
30010;SDS011;16851;53.564;8.112;2023-10-13T07:01:54;51.05;;;27.38;;
30010;SDS011;16851;53.564;8.112;2023-10-13T07:07:27;33.30;;;24.03;;
30010;SDS011;16851;53.564;8.112;2023-10-13T07:12:29;32.10;;;21.23;;
30010;SDS011;16851;53.564;8.112;2023-10-13T07:17:34;30.15;;;19.15;;
30010;SDS011;16851;53.564;8.112;2023-10-13T07:22:41;13.95;;;11.20;;
30010;SDS011;16851;53.564;8.112;2023-10-13T07:27:59;11.98;;;9.65;;
30010;SDS011;16851;53.564;8.112;2023-10-13T07:33:04;11.27;;;9.45;;
30010;SDS011;16851;53.564;8.112;2023-10-13T07:38:07;13.10;;;10.10;;
30010;SDS011;16851;53.564;8.112;2023-10-13T07:43:09;17.17;;;11.75;;
30010;SDS011;16851;53.564;8.112;2023-10-13T07:48:12;18.70;;;13.10;;
30010;SDS011;16851;53.564;8.112;2023-10-13T07:53:25;14.57;;;11.70;;
30010;SDS011;16851;53.564;8.112;2023-10-13T07:58:36;15.65;;;11.27;;
30010;SDS011;16851;53.564;8.112;2023-10-13T08:03:49;16.35;;;11.65;;
30010;SDS011;16851;53.564;8.112;2023-10-13T08:09:09;16.23;;;10.95;;
30010;SDS011;16851;53.564;8.112;2023-10-13T08:14:29;14.57;;;10.90;;
30010;SDS011;16851;53.564;8.112;2023-10-13T08:19:40;12.02;;;8.15;;
30010;SDS011;16851;53.564;8.112;2023-10-13T08:24:51;9.32;;;6.68;;
30010;SDS011;16851;53.564;8.112;2023-10-13T08:29:53;7.35;;;4.82;;
30010;SDS011;16851;53.564;8.112;2023-10-13T08:34:58;7.47;;;4.78;;
30010;SDS011;16851;53.564;8.112;2023-10-13T08:40:23;8.63;;;4.25;;
30010;SDS011;16851;53.564;8.112;2023-10-13T08:45:51;8.38;;;4.97;;
30010;SDS011;16851;53.564;8.112;2023-10-13T08:50:56;9.30;;;5.68;;
30010;SDS011;16851;53.564;8.112;2023-10-13T08:56:05;9.90;;;5.53;;
30010;SDS011;16851;53.564;8.112;2023-10-13T09:01:09;11.95;;;5.30;;
30010;SDS011;16851;53.564;8.112;2023-10-13T09:06:14;13.38;;;5.53;;
30010;SDS011;16851;53.564;8.112;2023-10-13T09:11:21;11.18;;;6.03;;
30010;SDS011;16851;53.564;8.112;2023-10-13T09:16:28;10.40;;;5.90;;
30010;SDS011;16851;53.564;8.112;2023-10-13T09:21:42;13.23;;;6.72;;
30010;SDS011;16851;53.564;8.112;2023-10-13T09:26:57;11.65;;;6.88;;
30010;SDS011;16851;53.564;8.112;2023-10-13T09:32:03;12.30;;;6.22;;
30010;SDS011;16851;53.564;8.112;2023-10-13T09:37:06;11.85;;;6.00;;
30010;SDS011;16851;53.564;8.112;2023-10-13T09:42:15;12.88;;;6.75;;
30010;SDS011;16851;53.564;8.112;2023-10-13T09:47:21;19.65;;;6.13;;
30010;SDS011;16851;53.564;8.112;2023-10-13T09:52:32;15.00;;;7.13;;
30010;SDS011;16851;53.564;8.112;2023-10-13T09:57:36;13.80;;;6.47;;
30010;SDS011;16851;53.564;8.112;2023-10-13T10:02:46;15.02;;;6.75;;
30010;SDS011;16851;53.564;8.112;2023-10-13T10:07:57;17.73;;;6.30;;
30010;SDS011;16851;53.564;8.112;2023-10-13T10:13:21;18.25;;;7.05;;
30010;SDS011;16851;53.564;8.112;2023-10-13T10:18:37;17.63;;;6.88;;
30010;SDS011;16851;53.564;8.112;2023-10-13T10:23:41;17.83;;;7.32;;
30010;SDS011;16851;53.564;8.112;2023-10-13T10:28:45;17.50;;;7.90;;
30010;SDS011;16851;53.564;8.112;2023-10-13T10:33:50;23.45;;;7.97;;
30010;SDS011;16851;53.564;8.112;2023-10-13T10:38:53;17.88;;;7.25;;
30010;SDS011;16851;53.564;8.112;2023-10-13T10:44:02;18.00;;;6.15;;
30010;SDS011;16851;53.564;8.112;2023-10-13T10:49:10;14.35;;;5.90;;
30010;SDS011;16851;53.564;8.112;2023-10-13T10:54:18;17.50;;;6.43;;
30010;SDS011;16851;53.564;8.112;2023-10-13T10:59:23;13.07;;;6.00;;
30010;SDS011;16851;53.564;8.112;2023-10-13T11:04:26;20.05;;;6.40;;
30010;SDS011;16851;53.564;8.112;2023-10-13T11:09:35;17.17;;;5.78;;
30010;SDS011;16851;53.564;8.112;2023-10-13T11:14:47;17.83;;;7.25;;
30010;SDS011;16851;53.564;8.112;2023-10-13T11:20:07;12.15;;;5.35;;
30010;SDS011;16851;53.564;8.112;2023-10-13T11:25:24;15.93;;;5.60;;
30010;SDS011;16851;53.564;8.112;2023-10-13T11:30:39;16.38;;;5.35;;
30010;SDS011;16851;53.564;8.112;2023-10-13T11:35:43;17.98;;;5.15;;
30010;SDS011;16851;53.564;8.112;2023-10-13T11:46:11;15.05;;;5.35;;
30010;SDS011;16851;53.564;8.112;2023-10-13T11:51:18;14.27;;;5.15;;
30010;SDS011;16851;53.564;8.112;2023-10-13T11:56:27;17.90;;;5.25;;
30010;SDS011;16851;53.564;8.112;2023-10-13T12:01:32;14.45;;;5.35;;
30010;SDS011;16851;53.564;8.112;2023-10-13T12:06:55;14.85;;;5.45;;
30010;SDS011;16851;53.564;8.112;2023-10-13T12:12:24;14.60;;;5.32;;
30010;SDS011;16851;53.564;8.112;2023-10-13T12:17:29;18.90;;;4.88;;
30010;SDS011;16851;53.564;8.112;2023-10-13T12:22:41;17.38;;;5.30;;
30010;SDS011;16851;53.564;8.112;2023-10-13T12:28:02;17.05;;;5.32;;
30010;SDS011;16851;53.564;8.112;2023-10-13T12:33:36;21.45;;;5.88;;
30010;SDS011;16851;53.564;8.112;2023-10-13T12:38:39;18.02;;;5.20;;
30010;SDS011;16851;53.564;8.112;2023-10-13T12:43:43;21.80;;;6.25;;
30010;SDS011;16851;53.564;8.112;2023-10-13T12:49:07;18.35;;;5.35;;
30010;SDS011;16851;53.564;8.112;2023-10-13T12:54:31;17.85;;;6.30;;
30010;SDS011;16851;53.564;8.112;2023-10-13T12:59:40;17.50;;;6.40;;
30010;SDS011;16851;53.564;8.112;2023-10-13T13:04:45;17.45;;;6.13;;
30010;SDS011;16851;53.564;8.112;2023-10-13T13:09:49;19.83;;;6.30;;
30010;SDS011;16851;53.564;8.112;2023-10-13T13:14:51;23.20;;;5.90;;
30010;SDS011;16851;53.564;8.112;2023-10-13T13:19:57;18.33;;;5.82;;
30010;SDS011;16851;53.564;8.112;2023-10-13T13:25:01;17.75;;;6.47;;
30010;SDS011;16851;53.564;8.112;2023-10-13T13:30:09;19.98;;;6.47;;
30010;SDS011;16851;53.564;8.112;2023-10-13T13:35:13;15.75;;;5.45;;
30010;SDS011;16851;53.564;8.112;2023-10-13T13:40:17;18.08;;;6.75;;
30010;SDS011;16851;53.564;8.112;2023-10-13T13:45:23;20.73;;;7.05;;
30010;SDS011;16851;53.564;8.112;2023-10-13T13:50:37;20.25;;;6.47;;
30010;SDS011;16851;53.564;8.112;2023-10-13T13:55:42;21.17;;;6.50;;
30010;SDS011;16851;53.564;8.112;2023-10-13T14:00:44;15.80;;;6.57;;
30010;SDS011;16851;53.564;8.112;2023-10-13T14:05:51;28.13;;;6.63;;
30010;SDS011;16851;53.564;8.112;2023-10-13T14:10:53;19.80;;;6.47;;
30010;SDS011;16851;53.564;8.112;2023-10-13T14:16:13;18.45;;;6.97;;
30010;SDS011;16851;53.564;8.112;2023-10-13T14:21:19;21.10;;;7.88;;
30010;SDS011;16851;53.564;8.112;2023-10-13T14:26:21;19.50;;;7.28;;
30010;SDS011;16851;53.564;8.112;2023-10-13T14:31:23;19.83;;;7.63;;
30010;SDS011;16851;53.564;8.112;2023-10-13T14:36:25;19.60;;;8.05;;
30010;SDS011;16851;53.564;8.112;2023-10-13T14:41:36;20.90;;;7.05;;
30010;SDS011;16851;53.564;8.112;2023-10-13T14:46:39;17.60;;;7.57;;
30010;SDS011;16851;53.564;8.112;2023-10-13T14:51:41;19.55;;;7.35;;
30010;SDS011;16851;53.564;8.112;2023-10-13T14:56:44;16.85;;;7.07;;
30010;SDS011;16851;53.564;8.112;2023-10-13T15:01:45;17.75;;;7.47;;
30010;SDS011;16851;53.564;8.112;2023-10-13T15:06:50;18.13;;;7.25;;
30010;SDS011;16851;53.564;8.112;2023-10-13T15:11:55;23.75;;;8.45;;
30010;SDS011;16851;53.564;8.112;2023-10-13T15:16:57;16.13;;;7.60;;
30010;SDS011;16851;53.564;8.112;2023-10-13T15:22:04;20.58;;;7.15;;
30010;SDS011;16851;53.564;8.112;2023-10-13T15:27:18;19.02;;;8.20;;
30010;SDS011;16851;53.564;8.112;2023-10-13T15:32:23;18.52;;;7.53;;
30010;SDS011;16851;53.564;8.112;2023-10-13T15:37:47;19.60;;;7.53;;
30010;SDS011;16851;53.564;8.112;2023-10-13T15:42:53;20.48;;;9.00;;
30010;SDS011;16851;53.564;8.112;2023-10-13T15:48:01;19.05;;;7.60;;
30010;SDS011;16851;53.564;8.112;2023-10-13T15:53:19;17.20;;;7.47;;
30010;SDS011;16851;53.564;8.112;2023-10-13T15:58:21;21.95;;;8.38;;
30010;SDS011;16851;53.564;8.112;2023-10-13T16:03:25;17.52;;;6.50;;
30010;SDS011;16851;53.564;8.112;2023-10-13T16:08:31;25.75;;;8.73;;
30010;SDS011;16851;53.564;8.112;2023-10-13T16:13:34;20.73;;;7.80;;
30010;SDS011;16851;53.564;8.112;2023-10-13T16:18:42;17.27;;;7.45;;
30010;SDS011;16851;53.564;8.112;2023-10-13T16:23:46;17.58;;;7.53;;
30010;SDS011;16851;53.564;8.112;2023-10-13T16:28:52;19.17;;;6.95;;
30010;SDS011;16851;53.564;8.112;2023-10-13T16:33:59;21.42;;;7.65;;
30010;SDS011;16851;53.564;8.112;2023-10-13T16:39:01;20.00;;;7.90;;
30010;SDS011;16851;53.564;8.112;2023-10-13T16:44:03;17.33;;;7.75;;
30010;SDS011;16851;53.564;8.112;2023-10-13T16:49:13;21.95;;;8.48;;
30010;SDS011;16851;53.564;8.112;2023-10-13T16:54:15;24.80;;;8.50;;
30010;SDS011;16851;53.564;8.112;2023-10-13T16:59:17;15.02;;;7.93;;
30010;SDS011;16851;53.564;8.112;2023-10-13T17:04:21;13.32;;;7.13;;
30010;SDS011;16851;53.564;8.112;2023-10-13T17:09:27;16.67;;;8.63;;
30010;SDS011;16851;53.564;8.112;2023-10-13T17:14:32;19.40;;;8.10;;
30010;SDS011;16851;53.564;8.112;2023-10-13T17:19:36;16.55;;;7.28;;
30010;SDS011;16851;53.564;8.112;2023-10-13T17:24:38;19.40;;;7.47;;
30010;SDS011;16851;53.564;8.112;2023-10-13T17:29:40;18.33;;;6.60;;
30010;SDS011;16851;53.564;8.112;2023-10-13T17:34:44;14.45;;;6.78;;
30010;SDS011;16851;53.564;8.112;2023-10-13T17:39:46;15.85;;;6.22;;
30010;SDS011;16851;53.564;8.112;2023-10-13T17:44:48;13.43;;;5.35;;
30010;SDS011;16851;53.564;8.112;2023-10-13T17:49:50;10.27;;;4.57;;
30010;SDS011;16851;53.564;8.112;2023-10-13T17:54:52;12.30;;;5.07;;
30010;SDS011;16851;53.564;8.112;2023-10-13T17:59:54;12.50;;;5.20;;
30010;SDS011;16851;53.564;8.112;2023-10-13T18:04:56;12.23;;;4.90;;
30010;SDS011;16851;53.564;8.112;2023-10-13T18:10:01;12.00;;;4.63;;
30010;SDS011;16851;53.564;8.112;2023-10-13T18:15:03;11.57;;;4.35;;
30010;SDS011;16851;53.564;8.112;2023-10-13T18:20:11;16.23;;;5.10;;
30010;SDS011;16851;53.564;8.112;2023-10-13T18:25:16;10.43;;;4.68;;
30010;SDS011;16851;53.564;8.112;2023-10-13T18:30:25;15.43;;;5.93;;
30010;SDS011;16851;53.564;8.112;2023-10-13T18:35:29;14.52;;;5.18;;
30010;SDS011;16851;53.564;8.112;2023-10-13T18:40:32;18.02;;;5.60;;
30010;SDS011;16851;53.564;8.112;2023-10-13T18:45:38;17.80;;;5.60;;
30010;SDS011;16851;53.564;8.112;2023-10-13T18:50:42;16.35;;;5.70;;
30010;SDS011;16851;53.564;8.112;2023-10-13T18:55:46;17.40;;;6.03;;
30010;SDS011;16851;53.564;8.112;2023-10-13T19:00:51;18.20;;;7.18;;
30010;SDS011;16851;53.564;8.112;2023-10-13T19:05:55;19.27;;;8.68;;
30010;SDS011;16851;53.564;8.112;2023-10-13T19:11:01;19.55;;;9.15;;
30010;SDS011;16851;53.564;8.112;2023-10-13T19:16:10;20.48;;;8.80;;
30010;SDS011;16851;53.564;8.112;2023-10-13T19:21:19;18.48;;;7.50;;
30010;SDS011;16851;53.564;8.112;2023-10-13T19:26:26;15.13;;;7.93;;
30010;SDS011;16851;53.564;8.112;2023-10-13T19:31:29;22.85;;;8.20;;
30010;SDS011;16851;53.564;8.112;2023-10-13T19:36:32;22.10;;;8.13;;
30010;SDS011;16851;53.564;8.112;2023-10-13T19:41:34;19.90;;;7.43;;
30010;SDS011;16851;53.564;8.112;2023-10-13T19:46:37;26.15;;;7.95;;
30010;SDS011;16851;53.564;8.112;2023-10-13T19:51:39;18.45;;;7.65;;
30010;SDS011;16851;53.564;8.112;2023-10-13T19:56:41;19.40;;;7.53;;
30010;SDS011;16851;53.564;8.112;2023-10-13T20:01:42;19.67;;;7.80;;
30010;SDS011;16851;53.564;8.112;2023-10-13T20:06:47;14.55;;;7.03;;
30010;SDS011;16851;53.564;8.112;2023-10-13T20:11:53;25.23;;;7.47;;
30010;SDS011;16851;53.564;8.112;2023-10-13T20:17:01;15.18;;;7.13;;
30010;SDS011;16851;53.564;8.112;2023-10-13T20:22:03;15.13;;;6.80;;
30010;SDS011;16851;53.564;8.112;2023-10-13T20:27:12;15.93;;;7.47;;
30010;SDS011;16851;53.564;8.112;2023-10-13T20:32:14;17.73;;;6.93;;
30010;SDS011;16851;53.564;8.112;2023-10-13T20:37:19;19.75;;;7.72;;
30010;SDS011;16851;53.564;8.112;2023-10-13T20:42:21;18.38;;;8.25;;
30010;SDS011;16851;53.564;8.112;2023-10-13T20:47:25;20.63;;;8.90;;
30010;SDS011;16851;53.564;8.112;2023-10-13T20:52:27;16.48;;;8.27;;
30010;SDS011;16851;53.564;8.112;2023-10-13T20:57:29;15.13;;;7.25;;
30010;SDS011;16851;53.564;8.112;2023-10-13T21:02:32;12.80;;;6.72;;
30010;SDS011;16851;53.564;8.112;2023-10-13T21:07:37;13.45;;;7.28;;
30010;SDS011;16851;53.564;8.112;2023-10-13T21:12:42;14.02;;;7.03;;
30010;SDS011;16851;53.564;8.112;2023-10-13T21:17:49;16.92;;;7.57;;
30010;SDS011;16851;53.564;8.112;2023-10-13T21:22:52;16.60;;;6.75;;
30010;SDS011;16851;53.564;8.112;2023-10-13T21:27:55;15.07;;;7.35;;
30010;SDS011;16851;53.564;8.112;2023-10-13T21:33:03;15.25;;;6.95;;
30010;SDS011;16851;53.564;8.112;2023-10-13T21:38:07;13.52;;;6.20;;
30010;SDS011;16851;53.564;8.112;2023-10-13T21:43:11;12.57;;;5.43;;
30010;SDS011;16851;53.564;8.112;2023-10-13T21:48:17;12.98;;;5.22;;
30010;SDS011;16851;53.564;8.112;2023-10-13T21:53:19;14.18;;;5.13;;
30010;SDS011;16851;53.564;8.112;2023-10-13T21:58:21;15.80;;;5.05;;
30010;SDS011;16851;53.564;8.112;2023-10-13T22:03:28;12.68;;;4.45;;
30010;SDS011;16851;53.564;8.112;2023-10-13T22:08:34;14.60;;;4.38;;
30010;SDS011;16851;53.564;8.112;2023-10-13T22:13:38;12.00;;;5.13;;
30010;SDS011;16851;53.564;8.112;2023-10-13T22:18:43;12.85;;;4.90;;
30010;SDS011;16851;53.564;8.112;2023-10-13T22:23:48;33.20;;;3.85;;
30010;SDS011;16851;53.564;8.112;2023-10-13T22:28:50;13.68;;;2.00;;
30010;SDS011;16851;53.564;8.112;2023-10-13T22:33:54;12.43;;;2.22;;
30010;SDS011;16851;53.564;8.112;2023-10-13T22:38:59;17.17;;;2.40;;
30010;SDS011;16851;53.564;8.112;2023-10-13T22:44:01;12.23;;;2.15;;
30010;SDS011;16851;53.564;8.112;2023-10-13T22:49:07;16.10;;;2.17;;
30010;SDS011;16851;53.564;8.112;2023-10-13T22:54:09;14.35;;;1.95;;
30010;SDS011;16851;53.564;8.112;2023-10-13T22:59:12;15.68;;;1.50;;
30010;SDS011;16851;53.564;8.112;2023-10-13T23:04:18;10.30;;;1.15;;
30010;SDS011;16851;53.564;8.112;2023-10-13T23:09:24;11.38;;;1.15;;
30010;SDS011;16851;53.564;8.112;2023-10-13T23:14:26;10.73;;;2.25;;
30010;SDS011;16851;53.564;8.112;2023-10-13T23:19:29;8.13;;;1.42;;
30010;SDS011;16851;53.564;8.112;2023-10-13T23:24:37;13.48;;;1.60;;
30010;SDS011;16851;53.564;8.112;2023-10-13T23:29:41;11.23;;;1.80;;
30010;SDS011;16851;53.564;8.112;2023-10-13T23:34:45;14.73;;;1.60;;
30010;SDS011;16851;53.564;8.112;2023-10-13T23:39:50;8.13;;;1.10;;
30010;SDS011;16851;53.564;8.112;2023-10-13T23:44:54;14.73;;;2.25;;
30010;SDS011;16851;53.564;8.112;2023-10-13T23:50:08;6.68;;;1.50;;
30010;SDS011;16851;53.564;8.112;2023-10-13T23:55:17;10.35;;;1.70;;
